sensor_id;sensor_type;location;lat;lon;timestamp;P1;durP1;ratioP1;P2;durP2;ratioP2
20482;SDS011;10400;53.198;6.592;2023-03-01T00:01:58;23.03;;;13.60;;
20482;SDS011;10400;53.198;6.592;2023-03-01T00:04:24;24.37;;;14.30;;
20482;SDS011;10400;53.198;6.592;2023-03-01T00:06:49;21.93;;;12.97;;
20482;SDS011;10400;53.198;6.592;2023-03-01T00:09:15;26.77;;;14.40;;
20482;SDS011;10400;53.198;6.592;2023-03-01T00:11:42;25.63;;;14.63;;
20482;SDS011;10400;53.198;6.592;2023-03-01T00:14:08;25.90;;;14.40;;
20482;SDS011;10400;53.198;6.592;2023-03-01T00:16:35;25.07;;;14.57;;
20482;SDS011;10400;53.198;6.592;2023-03-01T00:19:04;23.30;;;14.93;;
20482;SDS011;10400;53.198;6.592;2023-03-01T00:21:31;28.37;;;14.73;;
20482;SDS011;10400;53.198;6.592;2023-03-01T00:23:58;23.10;;;14.47;;
20482;SDS011;10400;53.198;6.592;2023-03-01T00:26:24;22.13;;;13.70;;
20482;SDS011;10400;53.198;6.592;2023-03-01T00:28:51;22.53;;;14.13;;
20482;SDS011;10400;53.198;6.592;2023-03-01T00:31:22;25.33;;;14.77;;
20482;SDS011;10400;53.198;6.592;2023-03-01T00:33:51;23.17;;;13.43;;
20482;SDS011;10400;53.198;6.592;2023-03-01T00:36:25;22.57;;;13.57;;
20482;SDS011;10400;53.198;6.592;2023-03-01T00:38:52;21.50;;;13.87;;
20482;SDS011;10400;53.198;6.592;2023-03-01T00:41:18;23.50;;;14.43;;
20482;SDS011;10400;53.198;6.592;2023-03-01T00:43:45;23.37;;;14.13;;
20482;SDS011;10400;53.198;6.592;2023-03-01T00:46:11;25.50;;;14.20;;
20482;SDS011;10400;53.198;6.592;2023-03-01T00:48:38;23.73;;;14.20;;
20482;SDS011;10400;53.198;6.592;2023-03-01T00:51:14;24.13;;;14.43;;
20482;SDS011;10400;53.198;6.592;2023-03-01T00:53:42;21.53;;;13.60;;
20482;SDS011;10400;53.198;6.592;2023-03-01T00:56:09;25.37;;;14.30;;
20482;SDS011;10400;53.198;6.592;2023-03-01T00:58:36;21.17;;;12.77;;
20482;SDS011;10400;53.198;6.592;2023-03-01T01:01:09;23.37;;;14.07;;
20482;SDS011;10400;53.198;6.592;2023-03-01T01:03:42;23.10;;;13.33;;
20482;SDS011;10400;53.198;6.592;2023-03-01T01:06:13;22.43;;;14.07;;
20482;SDS011;10400;53.198;6.592;2023-03-01T01:08:39;21.93;;;15.00;;
20482;SDS011;10400;53.198;6.592;2023-03-01T01:11:05;24.33;;;14.60;;
20482;SDS011;10400;53.198;6.592;2023-03-01T01:13:33;25.07;;;13.50;;
20482;SDS011;10400;53.198;6.592;2023-03-01T01:16:02;27.83;;;16.20;;
20482;SDS011;10400;53.198;6.592;2023-03-01T01:18:28;23.17;;;14.40;;
20482;SDS011;10400;53.198;6.592;2023-03-01T01:20:53;25.10;;;14.13;;
20482;SDS011;10400;53.198;6.592;2023-03-01T01:23:19;31.33;;;16.20;;
20482;SDS011;10400;53.198;6.592;2023-03-01T01:25:45;23.00;;;15.17;;
20482;SDS011;10400;53.198;6.592;2023-03-01T01:28:10;27.50;;;15.27;;
20482;SDS011;10400;53.198;6.592;2023-03-01T01:30:36;25.83;;;14.83;;
20482;SDS011;10400;53.198;6.592;2023-03-01T01:33:01;27.03;;;15.60;;
20482;SDS011;10400;53.198;6.592;2023-03-01T01:35:27;30.90;;;17.20;;
20482;SDS011;10400;53.198;6.592;2023-03-01T01:37:53;32.60;;;16.57;;
20482;SDS011;10400;53.198;6.592;2023-03-01T01:40:19;30.37;;;17.07;;
20482;SDS011;10400;53.198;6.592;2023-03-01T01:42:44;30.97;;;16.67;;
20482;SDS011;10400;53.198;6.592;2023-03-01T01:45:27;32.27;;;17.27;;
20482;SDS011;10400;53.198;6.592;2023-03-01T01:48:02;28.00;;;17.53;;
20482;SDS011;10400;53.198;6.592;2023-03-01T01:50:31;29.87;;;16.90;;
20482;SDS011;10400;53.198;6.592;2023-03-01T01:53:03;28.97;;;16.90;;
20482;SDS011;10400;53.198;6.592;2023-03-01T01:55:41;28.47;;;16.40;;
20482;SDS011;10400;53.198;6.592;2023-03-01T01:58:10;28.33;;;16.93;;
20482;SDS011;10400;53.198;6.592;2023-03-01T02:00:38;26.30;;;15.97;;
20482;SDS011;10400;53.198;6.592;2023-03-01T02:03:06;32.17;;;16.73;;
20482;SDS011;10400;53.198;6.592;2023-03-01T02:08:06;29.53;;;17.20;;
20482;SDS011;10400;53.198;6.592;2023-03-01T02:10:33;33.37;;;17.07;;
20482;SDS011;10400;53.198;6.592;2023-03-01T02:13:00;28.73;;;17.37;;
20482;SDS011;10400;53.198;6.592;2023-03-01T02:15:27;35.20;;;18.03;;
20482;SDS011;10400;53.198;6.592;2023-03-01T02:17:58;29.00;;;17.43;;
20482;SDS011;10400;53.198;6.592;2023-03-01T02:20:31;29.83;;;17.90;;
20482;SDS011;10400;53.198;6.592;2023-03-01T02:23:04;30.33;;;17.27;;
20482;SDS011;10400;53.198;6.592;2023-03-01T02:30:41;30.10;;;17.33;;
20482;SDS011;10400;53.198;6.592;2023-03-01T02:33:31;29.17;;;17.17;;
20482;SDS011;10400;53.198;6.592;2023-03-01T02:36:03;26.17;;;15.63;;
20482;SDS011;10400;53.198;6.592;2023-03-01T02:38:50;28.83;;;15.90;;
20482;SDS011;10400;53.198;6.592;2023-03-01T02:41:17;30.33;;;16.90;;
20482;SDS011;10400;53.198;6.592;2023-03-01T02:43:45;29.73;;;16.80;;
20482;SDS011;10400;53.198;6.592;2023-03-01T02:46:16;32.87;;;17.90;;
20482;SDS011;10400;53.198;6.592;2023-03-01T02:48:49;31.70;;;17.20;;
20482;SDS011;10400;53.198;6.592;2023-03-01T02:57:12;30.37;;;16.77;;
20482;SDS011;10400;53.198;6.592;2023-03-01T02:59:38;30.07;;;17.03;;
20482;SDS011;10400;53.198;6.592;2023-03-01T03:02:05;27.07;;;16.67;;
20482;SDS011;10400;53.198;6.592;2023-03-01T03:04:32;28.87;;;16.00;;
20482;SDS011;10400;53.198;6.592;2023-03-01T03:06:58;29.70;;;17.37;;
20482;SDS011;10400;53.198;6.592;2023-03-01T03:09:23;30.57;;;16.97;;
20482;SDS011;10400;53.198;6.592;2023-03-01T03:11:49;32.30;;;17.83;;
20482;SDS011;10400;53.198;6.592;2023-03-01T03:14:15;30.50;;;18.63;;
20482;SDS011;10400;53.198;6.592;2023-03-01T03:16:42;31.07;;;18.60;;
20482;SDS011;10400;53.198;6.592;2023-03-01T03:19:10;32.43;;;18.40;;
20482;SDS011;10400;53.198;6.592;2023-03-01T03:21:35;32.50;;;17.77;;
20482;SDS011;10400;53.198;6.592;2023-03-01T03:24:01;33.57;;;17.20;;
20482;SDS011;10400;53.198;6.592;2023-03-01T03:26:27;32.80;;;17.80;;
20482;SDS011;10400;53.198;6.592;2023-03-01T03:28:53;31.67;;;17.30;;
20482;SDS011;10400;53.198;6.592;2023-03-01T03:31:19;29.93;;;17.33;;
20482;SDS011;10400;53.198;6.592;2023-03-01T03:33:45;32.47;;;17.70;;
20482;SDS011;10400;53.198;6.592;2023-03-01T03:36:14;32.97;;;17.93;;
20482;SDS011;10400;53.198;6.592;2023-03-01T03:38:44;29.00;;;16.43;;
20482;SDS011;10400;53.198;6.592;2023-03-01T03:41:11;32.17;;;17.40;;
20482;SDS011;10400;53.198;6.592;2023-03-01T03:43:37;30.50;;;17.00;;
20482;SDS011;10400;53.198;6.592;2023-03-01T03:46:04;33.53;;;18.63;;
20482;SDS011;10400;53.198;6.592;2023-03-01T03:48:31;34.80;;;19.10;;
20482;SDS011;10400;53.198;6.592;2023-03-01T03:51:09;29.50;;;17.60;;
20482;SDS011;10400;53.198;6.592;2023-03-01T03:53:36;24.63;;;14.57;;
20482;SDS011;10400;53.198;6.592;2023-03-01T03:56:01;24.90;;;14.27;;
20482;SDS011;10400;53.198;6.592;2023-03-01T03:58:27;21.33;;;14.00;;
20482;SDS011;10400;53.198;6.592;2023-03-01T04:00:53;24.80;;;15.80;;
20482;SDS011;10400;53.198;6.592;2023-03-01T04:03:21;28.30;;;17.40;;
20482;SDS011;10400;53.198;6.592;2023-03-01T04:05:48;26.90;;;15.37;;
20482;SDS011;10400;53.198;6.592;2023-03-01T04:08:15;20.90;;;12.53;;
20482;SDS011;10400;53.198;6.592;2023-03-01T04:10:45;22.70;;;14.00;;
20482;SDS011;10400;53.198;6.592;2023-03-01T04:13:14;25.93;;;14.97;;
20482;SDS011;10400;53.198;6.592;2023-03-01T04:15:42;22.90;;;14.90;;
20482;SDS011;10400;53.198;6.592;2023-03-01T04:18:08;24.90;;;15.43;;
20482;SDS011;10400;53.198;6.592;2023-03-01T04:20:36;23.70;;;14.73;;
20482;SDS011;10400;53.198;6.592;2023-03-01T04:23:04;26.23;;;15.70;;
20482;SDS011;10400;53.198;6.592;2023-03-01T04:25:52;27.53;;;15.60;;
20482;SDS011;10400;53.198;6.592;2023-03-01T04:31:01;30.30;;;16.53;;
20482;SDS011;10400;53.198;6.592;2023-03-01T04:33:37;30.60;;;17.83;;
20482;SDS011;10400;53.198;6.592;2023-03-01T04:36:25;25.13;;;15.10;;
20482;SDS011;10400;53.198;6.592;2023-03-01T04:38:53;26.80;;;15.80;;
20482;SDS011;10400;53.198;6.592;2023-03-01T04:41:20;24.20;;;15.33;;
20482;SDS011;10400;53.198;6.592;2023-03-01T04:43:47;26.97;;;14.73;;
20482;SDS011;10400;53.198;6.592;2023-03-01T04:46:14;26.73;;;14.73;;
20482;SDS011;10400;53.198;6.592;2023-03-01T04:48:42;22.70;;;13.63;;
20482;SDS011;10400;53.198;6.592;2023-03-01T04:51:09;22.43;;;13.83;;
20482;SDS011;10400;53.198;6.592;2023-03-01T04:53:38;21.77;;;14.17;;
20482;SDS011;10400;53.198;6.592;2023-03-01T04:56:05;21.20;;;13.97;;
20482;SDS011;10400;53.198;6.592;2023-03-01T04:58:31;25.00;;;14.40;;
20482;SDS011;10400;53.198;6.592;2023-03-01T05:00:57;24.87;;;14.23;;
20482;SDS011;10400;53.198;6.592;2023-03-01T05:03:23;22.70;;;14.27;;
20482;SDS011;10400;53.198;6.592;2023-03-01T05:05:49;23.40;;;14.40;;
20482;SDS011;10400;53.198;6.592;2023-03-01T05:08:16;24.23;;;14.67;;
20482;SDS011;10400;53.198;6.592;2023-03-01T05:10:43;25.23;;;13.67;;
20482;SDS011;10400;53.198;6.592;2023-03-01T05:13:11;22.43;;;13.80;;
20482;SDS011;10400;53.198;6.592;2023-03-01T05:15:38;29.07;;;14.80;;
20482;SDS011;10400;53.198;6.592;2023-03-01T05:18:04;22.27;;;13.30;;
20482;SDS011;10400;53.198;6.592;2023-03-01T05:20:36;24.50;;;14.73;;
20482;SDS011;10400;53.198;6.592;2023-03-01T05:23:02;21.67;;;14.17;;
20482;SDS011;10400;53.198;6.592;2023-03-01T05:25:30;22.17;;;14.50;;
20482;SDS011;10400;53.198;6.592;2023-03-01T05:28:00;22.30;;;14.43;;
20482;SDS011;10400;53.198;6.592;2023-03-01T05:30:29;20.83;;;14.17;;
20482;SDS011;10400;53.198;6.592;2023-03-01T05:32:56;20.57;;;13.23;;
20482;SDS011;10400;53.198;6.592;2023-03-01T05:35:23;23.87;;;14.23;;
20482;SDS011;10400;53.198;6.592;2023-03-01T05:37:49;23.57;;;14.37;;
20482;SDS011;10400;53.198;6.592;2023-03-01T05:40:16;22.70;;;14.80;;
20482;SDS011;10400;53.198;6.592;2023-03-01T05:42:50;21.43;;;13.60;;
20482;SDS011;10400;53.198;6.592;2023-03-01T05:45:21;23.03;;;14.13;;
20482;SDS011;10400;53.198;6.592;2023-03-01T05:47:49;21.30;;;14.10;;
20482;SDS011;10400;53.198;6.592;2023-03-01T05:52:44;22.27;;;14.07;;
20482;SDS011;10400;53.198;6.592;2023-03-01T05:55:13;21.70;;;13.93;;
20482;SDS011;10400;53.198;6.592;2023-03-01T05:57:40;24.23;;;15.40;;
20482;SDS011;10400;53.198;6.592;2023-03-01T06:00:07;23.47;;;14.03;;
20482;SDS011;10400;53.198;6.592;2023-03-01T06:02:33;24.70;;;15.70;;
20482;SDS011;10400;53.198;6.592;2023-03-01T06:04:59;25.27;;;15.17;;
20482;SDS011;10400;53.198;6.592;2023-03-01T06:07:25;23.13;;;14.23;;
20482;SDS011;10400;53.198;6.592;2023-03-01T06:09:51;24.70;;;14.23;;
20482;SDS011;10400;53.198;6.592;2023-03-01T06:12:16;22.47;;;13.90;;
20482;SDS011;10400;53.198;6.592;2023-03-01T06:14:42;21.63;;;13.93;;
20482;SDS011;10400;53.198;6.592;2023-03-01T06:17:10;22.90;;;14.20;;
20482;SDS011;10400;53.198;6.592;2023-03-01T06:19:36;22.97;;;13.90;;
20482;SDS011;10400;53.198;6.592;2023-03-01T06:22:02;22.40;;;14.07;;
20482;SDS011;10400;53.198;6.592;2023-03-01T06:24:27;22.40;;;13.47;;
20482;SDS011;10400;53.198;6.592;2023-03-01T06:26:53;21.23;;;14.30;;
20482;SDS011;10400;53.198;6.592;2023-03-01T06:29:19;22.70;;;14.03;;
20482;SDS011;10400;53.198;6.592;2023-03-01T06:31:45;20.67;;;13.07;;
20482;SDS011;10400;53.198;6.592;2023-03-01T06:34:11;22.77;;;14.20;;
20482;SDS011;10400;53.198;6.592;2023-03-01T06:36:38;23.10;;;14.67;;
20482;SDS011;10400;53.198;6.592;2023-03-01T06:39:04;23.70;;;14.37;;
20482;SDS011;10400;53.198;6.592;2023-03-01T06:41:30;24.63;;;14.70;;
20482;SDS011;10400;53.198;6.592;2023-03-01T06:43:57;24.87;;;15.07;;
20482;SDS011;10400;53.198;6.592;2023-03-01T06:46:23;24.37;;;15.03;;
20482;SDS011;10400;53.198;6.592;2023-03-01T06:48:49;29.63;;;15.37;;
20482;SDS011;10400;53.198;6.592;2023-03-01T06:51:18;24.33;;;15.37;;
20482;SDS011;10400;53.198;6.592;2023-03-01T06:53:45;25.77;;;15.13;;
20482;SDS011;10400;53.198;6.592;2023-03-01T06:56:11;25.50;;;15.67;;
20482;SDS011;10400;53.198;6.592;2023-03-01T06:58:37;26.70;;;15.00;;
20482;SDS011;10400;53.198;6.592;2023-03-01T07:01:09;26.23;;;14.57;;
20482;SDS011;10400;53.198;6.592;2023-03-01T07:03:35;25.93;;;15.17;;
20482;SDS011;10400;53.198;6.592;2023-03-01T07:06:00;24.40;;;14.23;;
20482;SDS011;10400;53.198;6.592;2023-03-01T07:08:26;24.43;;;14.67;;
20482;SDS011;10400;53.198;6.592;2023-03-01T07:10:56;21.97;;;13.67;;
20482;SDS011;10400;53.198;6.592;2023-03-01T07:13:26;23.57;;;14.00;;
20482;SDS011;10400;53.198;6.592;2023-03-01T07:15:52;22.70;;;13.83;;
20482;SDS011;10400;53.198;6.592;2023-03-01T07:18:18;25.73;;;13.97;;
20482;SDS011;10400;53.198;6.592;2023-03-01T07:20:44;21.67;;;13.13;;
20482;SDS011;10400;53.198;6.592;2023-03-01T07:23:10;21.90;;;13.83;;
20482;SDS011;10400;53.198;6.592;2023-03-01T07:25:35;21.57;;;13.27;;
20482;SDS011;10400;53.198;6.592;2023-03-01T07:28:01;19.63;;;13.00;;
20482;SDS011;10400;53.198;6.592;2023-03-01T07:30:27;23.27;;;12.73;;
20482;SDS011;10400;53.198;6.592;2023-03-01T07:32:53;18.63;;;12.37;;
20482;SDS011;10400;53.198;6.592;2023-03-01T07:35:20;19.37;;;12.20;;
20482;SDS011;10400;53.198;6.592;2023-03-01T07:37:50;23.03;;;13.57;;
20482;SDS011;10400;53.198;6.592;2023-03-01T07:40:16;22.47;;;13.10;;
20482;SDS011;10400;53.198;6.592;2023-03-01T07:42:42;19.50;;;12.47;;
20482;SDS011;10400;53.198;6.592;2023-03-01T07:45:07;25.83;;;13.27;;
20482;SDS011;10400;53.198;6.592;2023-03-01T07:47:33;19.77;;;13.13;;
20482;SDS011;10400;53.198;6.592;2023-03-01T07:49:59;22.23;;;14.03;;
20482;SDS011;10400;53.198;6.592;2023-03-01T07:52:26;25.87;;;13.80;;
20482;SDS011;10400;53.198;6.592;2023-03-01T07:54:51;24.90;;;14.00;;
20482;SDS011;10400;53.198;6.592;2023-03-01T07:57:17;19.30;;;12.63;;
20482;SDS011;10400;53.198;6.592;2023-03-01T07:59:43;30.30;;;17.70;;
20482;SDS011;10400;53.198;6.592;2023-03-01T08:02:09;28.50;;;16.23;;
20482;SDS011;10400;53.198;6.592;2023-03-01T08:04:36;25.27;;;15.70;;
20482;SDS011;10400;53.198;6.592;2023-03-01T08:07:04;29.00;;;15.40;;
20482;SDS011;10400;53.198;6.592;2023-03-01T08:09:30;25.97;;;16.33;;
20482;SDS011;10400;53.198;6.592;2023-03-01T08:11:56;26.43;;;15.93;;
20482;SDS011;10400;53.198;6.592;2023-03-01T08:14:25;28.30;;;17.10;;
20482;SDS011;10400;53.198;6.592;2023-03-01T08:16:51;36.57;;;19.73;;
20482;SDS011;10400;53.198;6.592;2023-03-01T08:19:17;33.63;;;20.20;;
20482;SDS011;10400;53.198;6.592;2023-03-01T08:21:43;41.73;;;20.97;;
20482;SDS011;10400;53.198;6.592;2023-03-01T08:24:08;40.33;;;21.73;;
20482;SDS011;10400;53.198;6.592;2023-03-01T08:26:35;35.10;;;19.67;;
20482;SDS011;10400;53.198;6.592;2023-03-01T08:29:01;35.17;;;20.13;;
20482;SDS011;10400;53.198;6.592;2023-03-01T08:31:32;36.37;;;20.17;;
20482;SDS011;10400;53.198;6.592;2023-03-01T08:34:00;40.63;;;22.50;;
20482;SDS011;10400;53.198;6.592;2023-03-01T08:36:32;47.70;;;24.80;;
20482;SDS011;10400;53.198;6.592;2023-03-01T08:39:00;53.13;;;26.63;;
20482;SDS011;10400;53.198;6.592;2023-03-01T08:41:26;55.23;;;28.80;;
20482;SDS011;10400;53.198;6.592;2023-03-01T08:43:52;62.23;;;32.53;;
20482;SDS011;10400;53.198;6.592;2023-03-01T08:46:23;58.17;;;30.97;;
20482;SDS011;10400;53.198;6.592;2023-03-01T08:49:17;55.80;;;29.63;;
20482;SDS011;10400;53.198;6.592;2023-03-01T08:51:44;52.30;;;27.03;;
20482;SDS011;10400;53.198;6.592;2023-03-01T08:54:12;48.27;;;25.57;;
20482;SDS011;10400;53.198;6.592;2023-03-01T08:56:40;43.27;;;23.07;;
20482;SDS011;10400;53.198;6.592;2023-03-01T08:59:06;45.37;;;22.10;;
20482;SDS011;10400;53.198;6.592;2023-03-01T09:01:32;38.80;;;21.10;;
20482;SDS011;10400;53.198;6.592;2023-03-01T09:03:58;34.90;;;20.77;;
20482;SDS011;10400;53.198;6.592;2023-03-01T09:06:24;41.37;;;21.03;;
20482;SDS011;10400;53.198;6.592;2023-03-01T09:08:50;35.43;;;21.23;;
20482;SDS011;10400;53.198;6.592;2023-03-01T09:11:17;40.20;;;21.33;;
20482;SDS011;10400;53.198;6.592;2023-03-01T09:13:46;40.47;;;21.63;;
20482;SDS011;10400;53.198;6.592;2023-03-01T09:16:13;38.67;;;22.70;;
20482;SDS011;10400;53.198;6.592;2023-03-01T09:18:42;38.07;;;21.83;;
20482;SDS011;10400;53.198;6.592;2023-03-01T09:21:09;40.27;;;22.27;;
20482;SDS011;10400;53.198;6.592;2023-03-01T09:23:40;40.33;;;22.53;;
20482;SDS011;10400;53.198;6.592;2023-03-01T09:26:07;48.10;;;25.07;;
20482;SDS011;10400;53.198;6.592;2023-03-01T09:28:37;51.23;;;25.27;;
20482;SDS011;10400;53.198;6.592;2023-03-01T09:31:03;47.87;;;23.90;;
20482;SDS011;10400;53.198;6.592;2023-03-01T09:33:30;39.93;;;22.53;;
20482;SDS011;10400;53.198;6.592;2023-03-01T09:36:01;40.15;;;22.23;;
20482;SDS011;10400;53.198;6.592;2023-03-01T09:38:28;36.23;;;21.40;;
20482;SDS011;10400;53.198;6.592;2023-03-01T09:40:54;39.77;;;21.70;;
20482;SDS011;10400;53.198;6.592;2023-03-01T09:43:25;37.30;;;21.67;;
20482;SDS011;10400;53.198;6.592;2023-03-01T09:46:11;35.33;;;19.70;;
20482;SDS011;10400;53.198;6.592;2023-03-01T09:48:42;35.03;;;20.20;;
20482;SDS011;10400;53.198;6.592;2023-03-01T09:51:32;31.95;;;19.27;;
20482;SDS011;10400;53.198;6.592;2023-03-01T09:54:01;38.28;;;21.63;;
20482;SDS011;10400;53.198;6.592;2023-03-01T09:56:41;34.00;;;20.97;;
20482;SDS011;10400;53.198;6.592;2023-03-01T09:59:30;34.90;;;20.40;;
20482;SDS011;10400;53.198;6.592;2023-03-01T10:02:21;36.03;;;20.00;;
20482;SDS011;10400;53.198;6.592;2023-03-01T10:04:52;25.73;;;16.58;;
20482;SDS011;10400;53.198;6.592;2023-03-01T10:07:27;27.98;;;16.67;;
20482;SDS011;10400;53.198;6.592;2023-03-01T10:10:21;26.35;;;16.55;;
20482;SDS011;10400;53.198;6.592;2023-03-01T10:12:53;28.30;;;16.05;;
20482;SDS011;10400;53.198;6.592;2023-03-01T10:15:23;25.63;;;15.63;;
20482;SDS011;10400;53.198;6.592;2023-03-01T10:18:00;19.50;;;12.35;;
20482;SDS011;10400;53.198;6.592;2023-03-01T10:20:42;21.17;;;13.93;;
20482;SDS011;10400;53.198;6.592;2023-03-01T10:23:24;20.55;;;12.85;;
20482;SDS011;10400;53.198;6.592;2023-03-01T10:25:56;20.73;;;13.30;;
20482;SDS011;10400;53.198;6.592;2023-03-01T10:31:23;20.30;;;13.15;;
20482;SDS011;10400;53.198;6.592;2023-03-01T10:33:54;23.83;;;13.60;;
20482;SDS011;10400;53.198;6.592;2023-03-01T10:36:21;23.40;;;14.07;;
20482;SDS011;10400;53.198;6.592;2023-03-01T10:41:19;23.00;;;14.75;;
20482;SDS011;10400;53.198;6.592;2023-03-01T10:43:50;24.40;;;15.18;;
20482;SDS011;10400;53.198;6.592;2023-03-01T10:46:28;25.45;;;16.17;;
20482;SDS011;10400;53.198;6.592;2023-03-01T10:49:07;24.88;;;15.88;;
20482;SDS011;10400;53.198;6.592;2023-03-01T10:51:41;25.45;;;15.18;;
20482;SDS011;10400;53.198;6.592;2023-03-01T10:54:16;27.88;;;16.15;;
20482;SDS011;10400;53.198;6.592;2023-03-01T10:56:57;24.67;;;16.38;;
20482;SDS011;10400;53.198;6.592;2023-03-01T11:04:56;25.25;;;17.25;;
20482;SDS011;10400;53.198;6.592;2023-03-01T11:07:57;25.90;;;17.20;;
20482;SDS011;10400;53.198;6.592;2023-03-01T11:13:09;27.08;;;17.08;;
20482;SDS011;10400;53.198;6.592;2023-03-01T11:15:41;22.25;;;14.48;;
20482;SDS011;10400;53.198;6.592;2023-03-01T11:18:26;26.75;;;16.33;;
20482;SDS011;10400;53.198;6.592;2023-03-01T11:20:54;28.95;;;16.20;;
20482;SDS011;10400;53.198;6.592;2023-03-01T11:23:21;24.40;;;15.85;;
20482;SDS011;10400;53.198;6.592;2023-03-01T11:25:58;20.88;;;12.25;;
20482;SDS011;10400;53.198;6.592;2023-03-01T11:28:28;22.95;;;14.50;;
20482;SDS011;10400;53.198;6.592;2023-03-01T11:31:04;22.52;;;15.77;;
20482;SDS011;10400;53.198;6.592;2023-03-01T11:33:43;26.10;;;15.25;;
20482;SDS011;10400;53.198;6.592;2023-03-01T11:36:34;20.83;;;14.57;;
20482;SDS011;10400;53.198;6.592;2023-03-01T11:39:17;18.77;;;13.77;;
20482;SDS011;10400;53.198;6.592;2023-03-01T11:41:48;19.10;;;13.23;;
20482;SDS011;10400;53.198;6.592;2023-03-01T11:44:20;22.88;;;15.30;;
20482;SDS011;10400;53.198;6.592;2023-03-01T11:47:08;23.75;;;14.20;;
20482;SDS011;10400;53.198;6.592;2023-03-01T11:50:05;20.50;;;11.35;;
20482;SDS011;10400;53.198;6.592;2023-03-01T11:52:58;19.25;;;12.60;;
20482;SDS011;10400;53.198;6.592;2023-03-01T12:03:42;21.90;;;13.77;;
20482;SDS011;10400;53.198;6.592;2023-03-01T12:09:22;20.90;;;12.77;;
20482;SDS011;10400;53.198;6.592;2023-03-01T12:26:29;19.67;;;12.13;;
20482;SDS011;10400;53.198;6.592;2023-03-01T12:28:59;18.05;;;11.90;;
20482;SDS011;10400;53.198;6.592;2023-03-01T12:49:08;20.17;;;10.48;;
20482;SDS011;10400;53.198;6.592;2023-03-01T12:51:40;17.70;;;11.43;;
20482;SDS011;10400;53.198;6.592;2023-03-01T12:54:29;18.77;;;10.68;;
20482;SDS011;10400;53.198;6.592;2023-03-01T12:56:59;16.17;;;10.85;;
20482;SDS011;10400;53.198;6.592;2023-03-01T13:02:35;17.60;;;11.50;;
20482;SDS011;10400;53.198;6.592;2023-03-01T13:05:47;18.75;;;10.73;;
20482;SDS011;10400;53.198;6.592;2023-03-01T13:08:29;16.67;;;9.98;;
20482;SDS011;10400;53.198;6.592;2023-03-01T13:11:11;13.60;;;9.25;;
20482;SDS011;10400;53.198;6.592;2023-03-01T13:13:42;13.98;;;9.07;;
20482;SDS011;10400;53.198;6.592;2023-03-01T13:16:22;14.48;;;8.82;;
20482;SDS011;10400;53.198;6.592;2023-03-01T13:19:06;14.13;;;9.63;;
20482;SDS011;10400;53.198;6.592;2023-03-01T13:21:43;13.82;;;9.82;;
20482;SDS011;10400;53.198;6.592;2023-03-01T13:29:50;16.95;;;11.05;;
20482;SDS011;10400;53.198;6.592;2023-03-01T13:32:21;13.38;;;9.93;;
20482;SDS011;10400;53.198;6.592;2023-03-01T13:37:47;16.08;;;10.65;;
20482;SDS011;10400;53.198;6.592;2023-03-01T13:42:44;16.27;;;10.43;;
20482;SDS011;10400;53.198;6.592;2023-03-01T13:45:16;16.00;;;10.65;;
20482;SDS011;10400;53.198;6.592;2023-03-01T13:48:11;15.45;;;9.80;;
20482;SDS011;10400;53.198;6.592;2023-03-01T13:50:53;13.70;;;10.02;;
20482;SDS011;10400;53.198;6.592;2023-03-01T13:53:23;14.00;;;9.48;;
20482;SDS011;10400;53.198;6.592;2023-03-01T13:55:52;19.83;;;10.75;;
20482;SDS011;10400;53.198;6.592;2023-03-01T14:03:22;17.35;;;10.38;;
20482;SDS011;10400;53.198;6.592;2023-03-01T14:05:59;16.15;;;10.32;;
20482;SDS011;10400;53.198;6.592;2023-03-01T14:08:28;17.75;;;10.93;;
20482;SDS011;10400;53.198;6.592;2023-03-01T14:11:09;17.63;;;11.13;;
20482;SDS011;10400;53.198;6.592;2023-03-01T14:19:32;16.30;;;10.77;;
20482;SDS011;10400;53.198;6.592;2023-03-01T14:22:10;15.48;;;10.75;;
20482;SDS011;10400;53.198;6.592;2023-03-01T14:24:39;16.92;;;11.35;;
20482;SDS011;10400;53.198;6.592;2023-03-01T14:27:14;19.55;;;10.98;;
20482;SDS011;10400;53.198;6.592;2023-03-01T14:29:41;17.48;;;11.10;;
20482;SDS011;10400;53.198;6.592;2023-03-01T14:32:51;17.30;;;11.02;;
20482;SDS011;10400;53.198;6.592;2023-03-01T14:42:41;20.17;;;12.27;;
20482;SDS011;10400;53.198;6.592;2023-03-01T14:45:17;18.20;;;11.85;;
20482;SDS011;10400;53.198;6.592;2023-03-01T14:48:12;17.50;;;11.35;;
20482;SDS011;10400;53.198;6.592;2023-03-01T14:51:10;16.77;;;12.38;;
20482;SDS011;10400;53.198;6.592;2023-03-01T14:53:42;19.33;;;11.57;;
20482;SDS011;10400;53.198;6.592;2023-03-01T14:56:44;19.40;;;12.65;;
20482;SDS011;10400;53.198;6.592;2023-03-01T15:09:16;17.88;;;11.68;;
20482;SDS011;10400;53.198;6.592;2023-03-01T15:12:23;18.65;;;11.38;;
20482;SDS011;10400;53.198;6.592;2023-03-01T15:19:28;15.73;;;11.57;;
20482;SDS011;10400;53.198;6.592;2023-03-01T15:22:59;19.50;;;12.20;;
20482;SDS011;10400;53.198;6.592;2023-03-01T15:25:29;17.58;;;11.68;;
20482;SDS011;10400;53.198;6.592;2023-03-01T15:31:59;17.25;;;11.85;;
20482;SDS011;10400;53.198;6.592;2023-03-01T15:34:50;17.40;;;11.77;;
20482;SDS011;10400;53.198;6.592;2023-03-01T15:40:59;18.90;;;11.55;;
20482;SDS011;10400;53.198;6.592;2023-03-01T15:43:45;19.58;;;12.13;;
20482;SDS011;10400;53.198;6.592;2023-03-01T15:49:04;18.13;;;12.20;;
20482;SDS011;10400;53.198;6.592;2023-03-01T15:51:43;18.70;;;12.60;;
20482;SDS011;10400;53.198;6.592;2023-03-01T15:54:13;21.40;;;13.20;;
20482;SDS011;10400;53.198;6.592;2023-03-01T15:56:47;19.98;;;12.23;;
20482;SDS011;10400;53.198;6.592;2023-03-01T15:59:13;22.65;;;13.35;;
20482;SDS011;10400;53.198;6.592;2023-03-01T16:01:39;18.08;;;12.45;;
20482;SDS011;10400;53.198;6.592;2023-03-01T16:04:05;18.17;;;13.05;;
20482;SDS011;10400;53.198;6.592;2023-03-01T16:06:41;19.75;;;13.27;;
20482;SDS011;10400;53.198;6.592;2023-03-01T16:09:06;19.75;;;13.48;;
20482;SDS011;10400;53.198;6.592;2023-03-01T16:11:32;18.75;;;13.18;;
20482;SDS011;10400;53.198;6.592;2023-03-01T16:14:01;23.85;;;13.63;;
20482;SDS011;10400;53.198;6.592;2023-03-01T16:16:46;19.77;;;13.68;;
20482;SDS011;10400;53.198;6.592;2023-03-01T16:19:49;22.02;;;13.85;;
20482;SDS011;10400;53.198;6.592;2023-03-01T16:25:57;23.17;;;13.10;;
20482;SDS011;10400;53.198;6.592;2023-03-01T16:28:53;23.42;;;13.45;;
20482;SDS011;10400;53.198;6.592;2023-03-01T17:02:14;19.80;;;12.60;;
20482;SDS011;10400;53.198;6.592;2023-03-01T17:05:04;21.23;;;13.73;;
20482;SDS011;10400;53.198;6.592;2023-03-01T17:29:34;19.45;;;11.65;;
20482;SDS011;10400;53.198;6.592;2023-03-01T17:32:36;20.17;;;12.75;;
20482;SDS011;10400;53.198;6.592;2023-03-01T17:34:59;19.58;;;12.57;;
20482;SDS011;10400;53.198;6.592;2023-03-01T17:37:48;17.43;;;12.43;;
20482;SDS011;10400;53.198;6.592;2023-03-01T17:51:08;19.02;;;13.15;;
20482;SDS011;10400;53.198;6.592;2023-03-01T18:07:41;23.30;;;14.40;;
20482;SDS011;10400;53.198;6.592;2023-03-01T18:31:32;26.40;;;17.27;;
20482;SDS011;10400;53.198;6.592;2023-03-01T18:33:58;22.37;;;16.30;;
20482;SDS011;10400;53.198;6.592;2023-03-01T18:36:28;27.13;;;17.33;;
20482;SDS011;10400;53.198;6.592;2023-03-01T18:38:57;27.17;;;17.90;;
20482;SDS011;10400;53.198;6.592;2023-03-01T18:41:23;27.90;;;17.80;;